createdAt,value
2022-09-05T00:01:53.711Z,18.95
2022-09-05T00:06:59.560Z,19.02
2022-09-05T00:12:00.784Z,19.10
2022-09-05T00:17:09.842Z,18.76
2022-09-05T00:24:29.348Z,19.01
2022-09-05T00:28:25.918Z,19.02
2022-09-05T00:33:31.703Z,18.99
2022-09-05T00:38:37.017Z,18.87
2022-09-05T00:43:46.803Z,18.56
2022-09-05T00:48:49.091Z,18.90
2022-09-05T00:54:02.636Z,18.56
2022-09-05T00:59:40.667Z,18.95
2022-09-05T01:04:50.832Z,18.82
2022-09-05T01:10:03.586Z,18.93
2022-09-05T01:15:18.296Z,18.43
2022-09-05T01:20:36.483Z,18.79
2022-09-05T01:25:55.306Z,18.83
2022-09-05T01:31:02.288Z,18.72
2022-09-05T01:36:18.076Z,18.68
2022-09-05T01:41:23.666Z,18.73
2022-09-05T01:46:34.253Z,18.67
2022-09-05T01:51:40.929Z,18.62
2022-09-05T01:56:48.023Z,18.59
2022-09-05T02:02:13.080Z,18.32
2022-09-05T02:07:31.258Z,18.12
2022-09-05T02:12:35.179Z,18.13
2022-09-05T02:17:50.350Z,17.99
2022-09-05T02:23:00.063Z,18.12
2022-09-05T02:28:11.138Z,18.08
2022-09-05T02:33:17.083Z,17.62
2022-09-05T02:40:51.988Z,18.22
2022-09-05T02:45:17.415Z,18.00
2022-09-05T02:49:24.583Z,18.03
2022-09-05T02:57:43.077Z,18.22
2022-09-05T03:00:05.189Z,17.95
2022-09-05T03:05:12.777Z,17.87
2022-09-05T03:10:53.693Z,17.99
2022-09-05T03:16:27.473Z,18.05
2022-09-05T03:21:54.185Z,18.01
2022-09-05T03:27:32.449Z,17.62
2022-09-05T03:33:18.434Z,17.88
2022-09-05T03:38:51.827Z,17.71
2022-09-05T03:44:13.386Z,17.10
2022-09-05T03:53:16.415Z,17.42
2022-09-05T03:57:28.078Z,17.57
2022-09-05T04:01:10.772Z,17.79
2022-09-05T04:08:15.120Z,17.54
2022-09-05T04:12:13.290Z,17.88
2022-09-05T04:17:24.079Z,17.27
2022-09-05T04:22:41.606Z,17.42
2022-09-05T04:28:25.848Z,17.20
2022-09-05T04:33:43.674Z,17.98
2022-09-05T04:39:21.799Z,18.12
2022-09-05T04:44:27.431Z,17.87
2022-09-05T04:49:28.674Z,18.30
2022-09-05T05:05:52.222Z,17.90
2022-09-05T05:06:15.486Z,18.52
2022-09-05T05:17:54.475Z,18.54
2022-09-05T05:18:09.411Z,18.53
2022-09-05T05:22:01.479Z,18.72
2022-09-05T05:27:08.155Z,19.95
2022-09-05T05:32:54.101Z,21.40
2022-09-05T05:37:56.152Z,24.18
2022-09-05T05:43:12.395Z,26.68
2022-09-05T05:48:42.178Z,29.39
2022-09-05T05:53:58.384Z,31.64
2022-09-05T05:59:38.414Z,33.71
2022-09-05T06:05:38.087Z,35.12
2022-09-05T06:14:53.053Z,36.11
2022-09-05T06:16:58.511Z,37.13
2022-09-05T06:22:54.095Z,37.17
2022-09-05T06:28:30.305Z,37.01
2022-09-05T06:39:46.549Z,38.06
2022-09-05T06:45:28.274Z,38.86
2022-09-05T06:51:06.918Z,39.41
2022-09-05T06:56:25.919Z,39.93
2022-09-05T07:02:00.162Z,39.25
2022-09-05T07:07:13.175Z,38.49
2022-09-05T07:12:18.693Z,37.12
2022-09-05T07:18:06.488Z,37.17
2022-09-05T07:23:47.669Z,36.49
2022-09-05T07:28:33.820Z,36.53
2022-09-05T07:33:32.236Z,35.34
2022-09-05T07:39:28.168Z,34.85
2022-09-05T07:44:56.588Z,32.22
2022-09-05T07:52:19.111Z,30.75
2022-09-05T07:57:00.913Z,30.60
2022-09-05T08:00:59.218Z,30.23
2022-09-05T08:06:01.695Z,30.43
2022-09-05T08:11:23.587Z,31.32
2022-09-05T08:22:02.556Z,35.07
2022-09-05T08:27:15.982Z,34.92
2022-09-05T08:33:11.227Z,34.48
2022-09-05T08:38:25.133Z,33.98
2022-09-05T08:46:35.827Z,34.25
2022-09-05T08:49:32.258Z,35.57
2022-09-05T08:55:10.125Z,35.82
2022-09-05T09:00:20.821Z,35.67
2022-09-05T09:06:15.621Z,35.79
2022-09-05T09:11:28.628Z,36.78
2022-09-05T09:16:34.963Z,36.03
2022-09-05T09:21:56.576Z,36.04
2022-09-05T09:27:15.219Z,35.54
2022-09-05T09:32:43.518Z,34.98
2022-09-05T09:38:18.850Z,34.89
2022-09-05T09:43:25.026Z,34.27
2022-09-05T09:48:46.397Z,34.92
2022-09-05T09:54:15.930Z,34.72
2022-09-05T10:00:22.614Z,33.92
2022-09-05T10:10:45.152Z,34.62
2022-09-05T10:17:19.654Z,34.65
2022-09-05T10:22:36.555Z,34.75
2022-09-05T10:28:00.413Z,34.73
2022-09-05T10:35:14.945Z,33.05
2022-09-05T10:39:18.405Z,32.10
2022-09-05T10:44:32.594Z,31.12
2022-09-05T10:49:36.098Z,30.66
2022-09-05T10:54:53.027Z,30.45
2022-09-05T11:02:24.775Z,29.28
2022-09-05T11:05:51.685Z,28.45
2022-09-05T11:11:01.159Z,28.33
2022-09-05T11:22:23.701Z,26.63
2022-09-05T11:28:13.306Z,26.19
2022-09-05T11:39:45.991Z,26.83
2022-09-05T11:46:44.745Z,26.43
2022-09-05T11:52:59.082Z,26.71
2022-09-05T12:50:22.630Z,26.98
2022-09-05T13:03:11.348Z,26.06
2022-09-05T13:07:06.974Z,26.81
2022-09-05T13:18:00.698Z,26.24
2022-09-05T13:29:10.631Z,26.33
2022-09-05T13:40:19.621Z,26.22
2022-09-05T13:45:20.341Z,25.79
2022-09-05T13:50:26.130Z,25.73
2022-09-05T13:55:45.390Z,26.16
2022-09-05T14:01:14.484Z,26.63
2022-09-05T14:12:32.631Z,25.88
2022-09-05T14:17:55.225Z,25.92
2022-09-05T14:23:04.385Z,25.86
2022-09-05T14:28:10.795Z,25.18
2022-09-05T14:37:41.990Z,25.48
2022-09-05T14:39:19.379Z,26.01
2022-09-05T14:45:17.735Z,26.04
2022-09-05T14:50:38.566Z,25.71
2022-09-05T14:55:38.129Z,25.60
2022-09-05T15:02:44.575Z,26.30
2022-09-05T15:06:15.484Z,26.19
2022-09-05T15:12:23.644Z,25.97
2022-09-05T15:17:04.575Z,25.67
2022-09-05T15:22:27.422Z,25.51
2022-09-05T15:27:37.576Z,25.71
2022-09-05T15:32:50.932Z,25.35
2022-09-05T15:43:30.515Z,25.47
2022-09-05T15:48:35.378Z,25.75
2022-09-05T15:53:37.755Z,25.54
2022-09-05T15:59:03.526Z,25.55
2022-09-05T16:09:37.255Z,25.17
2022-09-05T16:10:48.477Z,25.33
2022-09-05T16:18:58.598Z,25.06
2022-09-05T16:23:31.194Z,24.87
2022-09-05T16:27:24.696Z,24.62
2022-09-05T16:32:26.039Z,24.71
2022-09-05T16:37:41.010Z,24.67
2022-09-05T16:43:01.675Z,24.63
2022-09-05T16:48:24.361Z,24.51
2022-09-05T16:53:58.108Z,24.28
2022-09-05T16:59:30.885Z,24.01
2022-09-05T17:05:03.649Z,24.12
2022-09-05T17:11:03.731Z,23.56
2022-09-05T17:16:03.398Z,23.95
2022-09-05T17:21:43.436Z,23.36
2022-09-05T17:33:00.198Z,23.47
2022-09-05T17:45:04.009Z,23.67
2022-09-05T17:50:45.211Z,23.62
2022-09-05T17:56:26.996Z,24.45
2022-09-05T18:01:28.494Z,24.46
2022-09-05T18:07:00.563Z,23.72
2022-09-05T18:12:34.502Z,24.20
2022-09-05T18:18:31.317Z,23.73
2022-09-05T18:24:02.011Z,23.73
2022-09-05T18:29:15.901Z,23.64
2022-09-05T18:35:08.664Z,24.20
2022-09-05T18:40:43.705Z,24.04
2022-09-05T18:45:52.437Z,23.88
2022-09-05T18:50:53.107Z,23.73
2022-09-05T18:56:20.386Z,23.58
2022-09-05T19:01:30.643Z,23.69
2022-09-05T19:06:35.733Z,23.89
2022-09-05T19:11:52.697Z,23.47
2022-09-05T19:17:02.665Z,23.57
2022-09-05T19:23:08.713Z,23.65
2022-09-05T19:28:58.410Z,23.35
2022-09-05T19:37:09.791Z,23.82
2022-09-05T19:47:38.544Z,23.18
2022-09-05T19:49:18.123Z,23.73
2022-09-05T19:54:25.965Z,23.38
2022-09-05T20:00:11.560Z,23.61
2022-09-05T20:05:25.477Z,23.66
2022-09-05T20:17:28.135Z,23.88
2022-09-05T20:23:26.203Z,23.43
2022-09-05T20:28:38.038Z,23.48
2022-09-05T20:43:16.579Z,24.04
2022-09-05T20:51:14.112Z,23.87
2022-09-05T20:54:21.957Z,24.05
2022-09-05T20:57:25.042Z,23.69
2022-09-05T21:02:33.165Z,23.37
2022-09-05T21:08:13.011Z,23.75
2022-09-05T21:13:41.243Z,23.57
2022-09-05T21:18:52.626Z,23.56
2022-09-05T21:24:18.212Z,23.92
2022-09-05T21:29:32.566Z,23.68
2022-09-05T21:34:33.836Z,23.88
2022-09-05T21:39:56.931Z,23.47
2022-09-05T21:47:42.728Z,23.61
2022-09-05T21:50:53.647Z,23.20
2022-09-05T21:59:14.458Z,23.19
2022-09-05T22:01:12.277Z,23.58
2022-09-05T22:06:11.482Z,23.70
2022-09-05T22:11:12.819Z,23.51
2022-09-05T22:16:24.408Z,23.19
2022-09-05T22:21:45.331Z,23.12
2022-09-05T22:27:10.717Z,23.24
2022-09-05T22:32:07.771Z,23.36
2022-09-05T22:37:05.222Z,23.44
2022-09-05T22:42:02.454Z,23.64
2022-09-05T22:47:06.478Z,23.50
2022-09-05T22:52:09.486Z,23.30
2022-09-05T22:57:08.084Z,23.31
2022-09-05T23:02:13.862Z,23.63
2022-09-05T23:08:02.860Z,23.58
2022-09-05T23:13:16.384Z,23.30
2022-09-05T23:18:14.709Z,23.20
2022-09-05T23:23:15.845Z,23.27
2022-09-05T23:28:21.919Z,22.91
2022-09-05T23:33:20.622Z,23.09
2022-09-05T23:38:25.641Z,23.26
2022-09-05T23:43:25.203Z,22.64
2022-09-05T23:48:44.813Z,23.05
2022-09-05T23:53:48.383Z,22.74
2022-09-05T23:58:45.745Z,23.38
